sensor_id;sensor_type;location;lat;lon;timestamp;temperature;humidity
7720;DHT22;3902;49.474;8.616;2024-03-17T00:02:20;9.90;99.90
7720;DHT22;3902;49.474;8.616;2024-03-17T00:04:46;9.90;99.90
7720;DHT22;3902;49.474;8.616;2024-03-17T00:07:12;9.90;99.90
7720;DHT22;3902;49.474;8.616;2024-03-17T00:09:38;9.80;99.90
7720;DHT22;3902;49.474;8.616;2024-03-17T00:12:04;9.70;99.90
7720;DHT22;3902;49.474;8.616;2024-03-17T00:14:30;9.70;99.90
7720;DHT22;3902;49.474;8.616;2024-03-17T00:16:56;9.60;99.90
7720;DHT22;3902;49.474;8.616;2024-03-17T00:19:23;9.60;99.90
7720;DHT22;3902;49.474;8.616;2024-03-17T00:21:49;9.60;99.90
7720;DHT22;3902;49.474;8.616;2024-03-17T00:24:16;9.60;99.90
7720;DHT22;3902;49.474;8.616;2024-03-17T00:26:42;9.50;99.90
7720;DHT22;3902;49.474;8.616;2024-03-17T00:29:08;9.60;99.90
7720;DHT22;3902;49.474;8.616;2024-03-17T00:31:34;9.50;99.90
7720;DHT22;3902;49.474;8.616;2024-03-17T00:33:59;9.50;99.90
7720;DHT22;3902;49.474;8.616;2024-03-17T00:36:25;9.40;99.90
7720;DHT22;3902;49.474;8.616;2024-03-17T00:38:50;9.40;99.90
7720;DHT22;3902;49.474;8.616;2024-03-17T00:41:17;9.40;99.90
7720;DHT22;3902;49.474;8.616;2024-03-17T00:43:44;9.40;99.90
7720;DHT22;3902;49.474;8.616;2024-03-17T00:46:10;9.40;99.90
7720;DHT22;3902;49.474;8.616;2024-03-17T00:48:35;9.30;99.90
7720;DHT22;3902;49.474;8.616;2024-03-17T00:51:01;9.30;99.90
7720;DHT22;3902;49.474;8.616;2024-03-17T00:53:28;9.30;99.90
7720;DHT22;3902;49.474;8.616;2024-03-17T00:55:57;9.30;99.90
7720;DHT22;3902;49.474;8.616;2024-03-17T00:58:28;9.20;99.90
7720;DHT22;3902;49.474;8.616;2024-03-17T01:00:54;9.20;99.90
7720;DHT22;3902;49.474;8.616;2024-03-17T01:03:19;9.20;99.90
7720;DHT22;3902;49.474;8.616;2024-03-17T01:05:45;9.20;99.90
7720;DHT22;3902;49.474;8.616;2024-03-17T01:08:16;9.20;99.90
7720;DHT22;3902;49.474;8.616;2024-03-17T01:10:42;9.10;99.90
7720;DHT22;3902;49.474;8.616;2024-03-17T01:13:09;9.10;99.90
7720;DHT22;3902;49.474;8.616;2024-03-17T01:15:36;9.10;99.90
7720;DHT22;3902;49.474;8.616;2024-03-17T01:18:05;9.00;99.90
7720;DHT22;3902;49.474;8.616;2024-03-17T01:20:37;9.00;99.90
7720;DHT22;3902;49.474;8.616;2024-03-17T01:23:04;9.00;99.90
7720;DHT22;3902;49.474;8.616;2024-03-17T01:25:29;9.00;99.90
7720;DHT22;3902;49.474;8.616;2024-03-17T01:27:56;8.90;99.90
7720;DHT22;3902;49.474;8.616;2024-03-17T01:30:22;8.90;99.90
7720;DHT22;3902;49.474;8.616;2024-03-17T01:32:48;8.90;99.90
7720;DHT22;3902;49.474;8.616;2024-03-17T01:35:14;8.80;99.90
7720;DHT22;3902;49.474;8.616;2024-03-17T01:37:40;8.80;99.90
7720;DHT22;3902;49.474;8.616;2024-03-17T01:40:06;8.80;99.90
7720;DHT22;3902;49.474;8.616;2024-03-17T01:42:36;8.80;99.90
7720;DHT22;3902;49.474;8.616;2024-03-17T01:45:20;8.70;99.90
7720;DHT22;3902;49.474;8.616;2024-03-17T01:47:49;8.70;99.90
7720;DHT22;3902;49.474;8.616;2024-03-17T01:50:14;8.70;99.90
7720;DHT22;3902;49.474;8.616;2024-03-17T01:52:45;8.70;99.90
7720;DHT22;3902;49.474;8.616;2024-03-17T01:55:11;8.70;99.90
7720;DHT22;3902;49.474;8.616;2024-03-17T01:57:37;8.60;99.90
7720;DHT22;3902;49.474;8.616;2024-03-17T02:00:03;8.60;99.90
7720;DHT22;3902;49.474;8.616;2024-03-17T02:02:33;8.60;99.90
7720;DHT22;3902;49.474;8.616;2024-03-17T02:04:58;8.60;99.90
7720;DHT22;3902;49.474;8.616;2024-03-17T02:07:24;8.50;99.90
7720;DHT22;3902;49.474;8.616;2024-03-17T02:09:49;8.50;99.90
7720;DHT22;3902;49.474;8.616;2024-03-17T02:12:15;8.50;99.90
7720;DHT22;3902;49.474;8.616;2024-03-17T02:14:41;8.50;99.90
7720;DHT22;3902;49.474;8.616;2024-03-17T02:17:06;8.40;99.90
7720;DHT22;3902;49.474;8.616;2024-03-17T02:19:31;8.40;99.90
7720;DHT22;3902;49.474;8.616;2024-03-17T02:21:57;8.40;99.90
7720;DHT22;3902;49.474;8.616;2024-03-17T02:24:23;8.40;99.90
7720;DHT22;3902;49.474;8.616;2024-03-17T02:26:48;8.40;99.90
7720;DHT22;3902;49.474;8.616;2024-03-17T02:29:14;8.30;99.90
7720;DHT22;3902;49.474;8.616;2024-03-17T02:31:39;8.30;99.90
7720;DHT22;3902;49.474;8.616;2024-03-17T02:34:05;8.30;99.90
7720;DHT22;3902;49.474;8.616;2024-03-17T02:36:30;8.30;99.90
7720;DHT22;3902;49.474;8.616;2024-03-17T02:38:57;8.30;99.90
7720;DHT22;3902;49.474;8.616;2024-03-17T02:41:44;8.30;99.90
7720;DHT22;3902;49.474;8.616;2024-03-17T02:44:11;8.20;99.90
7720;DHT22;3902;49.474;8.616;2024-03-17T02:46:36;8.20;99.90
7720;DHT22;3902;49.474;8.616;2024-03-17T02:49:03;8.20;99.90
7720;DHT22;3902;49.474;8.616;2024-03-17T02:51:28;8.20;99.90
7720;DHT22;3902;49.474;8.616;2024-03-17T02:53:54;8.10;99.90
7720;DHT22;3902;49.474;8.616;2024-03-17T02:56:20;8.10;99.90
7720;DHT22;3902;49.474;8.616;2024-03-17T02:58:46;8.10;99.90
7720;DHT22;3902;49.474;8.616;2024-03-17T03:01:12;8.00;99.90
7720;DHT22;3902;49.474;8.616;2024-03-17T03:03:38;8.00;99.90
7720;DHT22;3902;49.474;8.616;2024-03-17T03:06:04;8.00;99.90
7720;DHT22;3902;49.474;8.616;2024-03-17T03:08:40;8.00;99.90
7720;DHT22;3902;49.474;8.616;2024-03-17T03:11:10;8.10;99.90
7720;DHT22;3902;49.474;8.616;2024-03-17T03:13:41;8.00;99.90
7720;DHT22;3902;49.474;8.616;2024-03-17T03:16:12;8.00;99.90
7720;DHT22;3902;49.474;8.616;2024-03-17T03:18:39;8.00;99.90
7720;DHT22;3902;49.474;8.616;2024-03-17T03:21:05;8.00;99.90
7720;DHT22;3902;49.474;8.616;2024-03-17T03:23:31;8.00;99.90
7720;DHT22;3902;49.474;8.616;2024-03-17T03:26:01;8.00;99.90
7720;DHT22;3902;49.474;8.616;2024-03-17T03:28:36;8.00;99.90
7720;DHT22;3902;49.474;8.616;2024-03-17T03:31:02;8.00;99.90
7720;DHT22;3902;49.474;8.616;2024-03-17T03:33:27;8.00;99.90
7720;DHT22;3902;49.474;8.616;2024-03-17T03:35:53;8.00;99.90
7720;DHT22;3902;49.474;8.616;2024-03-17T03:38:19;8.10;99.90
7720;DHT22;3902;49.474;8.616;2024-03-17T03:40:45;8.10;99.90
7720;DHT22;3902;49.474;8.616;2024-03-17T03:43:11;8.10;99.90
7720;DHT22;3902;49.474;8.616;2024-03-17T03:45:37;8.10;99.90
7720;DHT22;3902;49.474;8.616;2024-03-17T03:48:03;8.10;99.90
7720;DHT22;3902;49.474;8.616;2024-03-17T03:50:33;8.10;99.90
7720;DHT22;3902;49.474;8.616;2024-03-17T03:52:58;8.10;99.90
7720;DHT22;3902;49.474;8.616;2024-03-17T03:55:24;8.00;99.90
7720;DHT22;3902;49.474;8.616;2024-03-17T03:57:50;8.00;99.90
7720;DHT22;3902;49.474;8.616;2024-03-17T04:00:20;8.00;99.90
7720;DHT22;3902;49.474;8.616;2024-03-17T04:02:52;8.00;99.90
7720;DHT22;3902;49.474;8.616;2024-03-17T04:05:20;8.00;99.90
7720;DHT22;3902;49.474;8.616;2024-03-17T04:07:47;8.00;99.90
7720;DHT22;3902;49.474;8.616;2024-03-17T04:10:14;7.90;99.90
7720;DHT22;3902;49.474;8.616;2024-03-17T04:12:40;7.90;99.90
7720;DHT22;3902;49.474;8.616;2024-03-17T04:15:06;7.90;99.90
7720;DHT22;3902;49.474;8.616;2024-03-17T04:17:33;7.80;99.90
7720;DHT22;3902;49.474;8.616;2024-03-17T04:19:58;7.70;99.90
7720;DHT22;3902;49.474;8.616;2024-03-17T04:22:24;7.70;99.90
7720;DHT22;3902;49.474;8.616;2024-03-17T04:24:51;7.70;99.90
7720;DHT22;3902;49.474;8.616;2024-03-17T04:27:20;7.80;99.90
7720;DHT22;3902;49.474;8.616;2024-03-17T04:29:58;7.70;99.90
7720;DHT22;3902;49.474;8.616;2024-03-17T04:32:24;7.60;99.90
7720;DHT22;3902;49.474;8.616;2024-03-17T04:34:49;7.70;99.90
7720;DHT22;3902;49.474;8.616;2024-03-17T04:37:15;7.60;99.90
7720;DHT22;3902;49.474;8.616;2024-03-17T04:39:46;7.60;99.90
7720;DHT22;3902;49.474;8.616;2024-03-17T04:42:16;7.60;99.90
7720;DHT22;3902;49.474;8.616;2024-03-17T04:44:43;7.50;99.90
7720;DHT22;3902;49.474;8.616;2024-03-17T04:47:09;7.50;99.90
7720;DHT22;3902;49.474;8.616;2024-03-17T04:49:43;7.50;99.90
7720;DHT22;3902;49.474;8.616;2024-03-17T04:52:10;7.50;99.90
7720;DHT22;3902;49.474;8.616;2024-03-17T04:54:36;7.50;99.90
7720;DHT22;3902;49.474;8.616;2024-03-17T04:57:02;7.50;99.90
7720;DHT22;3902;49.474;8.616;2024-03-17T04:59:28;7.40;99.90
7720;DHT22;3902;49.474;8.616;2024-03-17T05:01:54;7.50;99.90
7720;DHT22;3902;49.474;8.616;2024-03-17T05:04:20;7.40;99.90
7720;DHT22;3902;49.474;8.616;2024-03-17T05:06:46;7.50;99.90
7720;DHT22;3902;49.474;8.616;2024-03-17T05:09:13;7.40;99.90
7720;DHT22;3902;49.474;8.616;2024-03-17T05:11:39;7.40;99.90
7720;DHT22;3902;49.474;8.616;2024-03-17T05:14:04;7.40;99.90
7720;DHT22;3902;49.474;8.616;2024-03-17T05:16:30;7.40;99.90
7720;DHT22;3902;49.474;8.616;2024-03-17T05:18:56;7.40;99.90
7720;DHT22;3902;49.474;8.616;2024-03-17T05:21:21;7.50;99.90
7720;DHT22;3902;49.474;8.616;2024-03-17T05:23:52;7.50;99.90
7720;DHT22;3902;49.474;8.616;2024-03-17T05:26:17;7.50;99.90
7720;DHT22;3902;49.474;8.616;2024-03-17T05:28:44;7.60;99.90
7720;DHT22;3902;49.474;8.616;2024-03-17T05:31:10;7.60;99.90
7720;DHT22;3902;49.474;8.616;2024-03-17T05:33:35;7.60;99.90
7720;DHT22;3902;49.474;8.616;2024-03-17T05:36:02;7.60;99.90
7720;DHT22;3902;49.474;8.616;2024-03-17T05:38:29;7.60;99.90
7720;DHT22;3902;49.474;8.616;2024-03-17T05:40:56;7.60;99.90
7720;DHT22;3902;49.474;8.616;2024-03-17T05:43:25;7.60;99.90
7720;DHT22;3902;49.474;8.616;2024-03-17T05:45:52;7.60;99.90
7720;DHT22;3902;49.474;8.616;2024-03-17T05:48:18;7.60;99.90
7720;DHT22;3902;49.474;8.616;2024-03-17T05:50:43;7.60;99.90
7720;DHT22;3902;49.474;8.616;2024-03-17T05:53:09;7.60;99.90
7720;DHT22;3902;49.474;8.616;2024-03-17T05:55:35;7.60;99.90
7720;DHT22;3902;49.474;8.616;2024-03-17T05:58:02;7.70;99.90
7720;DHT22;3902;49.474;8.616;2024-03-17T06:00:27;7.70;99.90
7720;DHT22;3902;49.474;8.616;2024-03-17T06:02:53;7.70;99.90
7720;DHT22;3902;49.474;8.616;2024-03-17T06:05:18;7.70;99.90
7720;DHT22;3902;49.474;8.616;2024-03-17T06:07:44;7.70;99.90
7720;DHT22;3902;49.474;8.616;2024-03-17T06:10:09;7.70;99.90
7720;DHT22;3902;49.474;8.616;2024-03-17T06:12:35;7.70;99.90
7720;DHT22;3902;49.474;8.616;2024-03-17T06:15:02;7.80;99.90
7720;DHT22;3902;49.474;8.616;2024-03-17T06:17:28;7.80;99.90
7720;DHT22;3902;49.474;8.616;2024-03-17T06:19:53;7.90;99.90
7720;DHT22;3902;49.474;8.616;2024-03-17T06:22:19;7.90;99.90
7720;DHT22;3902;49.474;8.616;2024-03-17T06:24:44;7.90;99.90
7720;DHT22;3902;49.474;8.616;2024-03-17T06:27:10;8.00;99.90
7720;DHT22;3902;49.474;8.616;2024-03-17T06:29:36;8.00;99.90
7720;DHT22;3902;49.474;8.616;2024-03-17T06:32:01;8.00;99.90
7720;DHT22;3902;49.474;8.616;2024-03-17T06:34:27;8.10;99.90
7720;DHT22;3902;49.474;8.616;2024-03-17T06:36:52;8.10;99.90
7720;DHT22;3902;49.474;8.616;2024-03-17T06:39:18;8.20;99.90
7720;DHT22;3902;49.474;8.616;2024-03-17T06:41:46;8.20;99.90
7720;DHT22;3902;49.474;8.616;2024-03-17T06:44:12;8.30;99.90
7720;DHT22;3902;49.474;8.616;2024-03-17T06:46:37;8.30;99.90
7720;DHT22;3902;49.474;8.616;2024-03-17T06:49:03;8.30;99.90
7720;DHT22;3902;49.474;8.616;2024-03-17T06:51:28;8.30;99.90
7720;DHT22;3902;49.474;8.616;2024-03-17T06:53:54;8.40;99.90
7720;DHT22;3902;49.474;8.616;2024-03-17T06:56:19;8.30;99.90
7720;DHT22;3902;49.474;8.616;2024-03-17T06:58:45;8.40;99.90
7720;DHT22;3902;49.474;8.616;2024-03-17T07:01:10;8.40;99.90
7720;DHT22;3902;49.474;8.616;2024-03-17T07:03:36;8.40;99.90
7720;DHT22;3902;49.474;8.616;2024-03-17T07:06:02;8.40;99.90
7720;DHT22;3902;49.474;8.616;2024-03-17T07:08:29;8.50;99.90
7720;DHT22;3902;49.474;8.616;2024-03-17T07:11:00;8.60;99.90
7720;DHT22;3902;49.474;8.616;2024-03-17T07:13:35;8.60;99.90
7720;DHT22;3902;49.474;8.616;2024-03-17T07:16:03;8.70;99.90
7720;DHT22;3902;49.474;8.616;2024-03-17T07:18:29;8.70;99.90
7720;DHT22;3902;49.474;8.616;2024-03-17T07:20:58;8.80;99.90
7720;DHT22;3902;49.474;8.616;2024-03-17T07:23:25;8.80;99.90
7720;DHT22;3902;49.474;8.616;2024-03-17T07:25:58;8.90;99.90
7720;DHT22;3902;49.474;8.616;2024-03-17T07:28:24;8.90;99.90
7720;DHT22;3902;49.474;8.616;2024-03-17T07:30:54;8.90;99.90
7720;DHT22;3902;49.474;8.616;2024-03-17T07:33:21;9.00;99.90
7720;DHT22;3902;49.474;8.616;2024-03-17T07:35:57;9.00;99.90
7720;DHT22;3902;49.474;8.616;2024-03-17T07:38:25;9.10;99.90
7720;DHT22;3902;49.474;8.616;2024-03-17T07:43:28;9.10;99.90
7720;DHT22;3902;49.474;8.616;2024-03-17T07:45:58;9.10;99.90
7720;DHT22;3902;49.474;8.616;2024-03-17T07:48:24;9.20;99.90
7720;DHT22;3902;49.474;8.616;2024-03-17T07:51:04;9.30;99.90
7720;DHT22;3902;49.474;8.616;2024-03-17T07:53:30;9.30;99.90
7720;DHT22;3902;49.474;8.616;2024-03-17T07:56:07;9.40;99.90
7720;DHT22;3902;49.474;8.616;2024-03-17T07:58:35;9.50;99.90
7720;DHT22;3902;49.474;8.616;2024-03-17T08:01:05;9.60;99.90
7720;DHT22;3902;49.474;8.616;2024-03-17T08:03:32;9.60;99.90
7720;DHT22;3902;49.474;8.616;2024-03-17T08:05:59;9.70;99.90
7720;DHT22;3902;49.474;8.616;2024-03-17T08:08:25;9.80;99.90
7720;DHT22;3902;49.474;8.616;2024-03-17T08:10:51;9.80;99.90
7720;DHT22;3902;49.474;8.616;2024-03-17T08:13:17;9.90;99.90
7720;DHT22;3902;49.474;8.616;2024-03-17T08:15:44;9.90;99.90
7720;DHT22;3902;49.474;8.616;2024-03-17T08:18:11;10.00;99.90
7720;DHT22;3902;49.474;8.616;2024-03-17T08:20:40;10.00;99.90
7720;DHT22;3902;49.474;8.616;2024-03-17T08:23:06;10.10;99.90
7720;DHT22;3902;49.474;8.616;2024-03-17T08:25:33;10.10;99.90
7720;DHT22;3902;49.474;8.616;2024-03-17T08:27:59;10.10;99.90
7720;DHT22;3902;49.474;8.616;2024-03-17T08:30:25;10.20;99.90
7720;DHT22;3902;49.474;8.616;2024-03-17T08:32:51;10.20;99.90
7720;DHT22;3902;49.474;8.616;2024-03-17T08:35:17;10.30;99.90
7720;DHT22;3902;49.474;8.616;2024-03-17T08:37:42;10.40;99.90
7720;DHT22;3902;49.474;8.616;2024-03-17T08:40:09;10.40;99.90
7720;DHT22;3902;49.474;8.616;2024-03-17T08:42:36;10.40;99.90
7720;DHT22;3902;49.474;8.616;2024-03-17T08:45:02;10.50;99.90
7720;DHT22;3902;49.474;8.616;2024-03-17T08:47:28;10.60;99.90
7720;DHT22;3902;49.474;8.616;2024-03-17T08:49:54;10.60;99.90
7720;DHT22;3902;49.474;8.616;2024-03-17T08:52:20;10.70;99.90
7720;DHT22;3902;49.474;8.616;2024-03-17T08:54:49;10.70;99.90
7720;DHT22;3902;49.474;8.616;2024-03-17T08:57:17;10.80;99.90
7720;DHT22;3902;49.474;8.616;2024-03-17T08:59:45;10.90;99.90
7720;DHT22;3902;49.474;8.616;2024-03-17T09:02:13;10.90;99.90
7720;DHT22;3902;49.474;8.616;2024-03-17T09:04:42;10.90;99.90
7720;DHT22;3902;49.474;8.616;2024-03-17T09:07:08;11.00;99.90
7720;DHT22;3902;49.474;8.616;2024-03-17T09:09:34;11.10;99.90
7720;DHT22;3902;49.474;8.616;2024-03-17T09:11:59;11.20;99.90
7720;DHT22;3902;49.474;8.616;2024-03-17T09:14:25;11.20;99.90
7720;DHT22;3902;49.474;8.616;2024-03-17T09:16:50;11.30;99.90
7720;DHT22;3902;49.474;8.616;2024-03-17T09:19:16;11.40;99.90
7720;DHT22;3902;49.474;8.616;2024-03-17T09:21:42;11.40;99.90
7720;DHT22;3902;49.474;8.616;2024-03-17T09:24:08;11.50;99.90
7720;DHT22;3902;49.474;8.616;2024-03-17T09:26:34;11.50;99.90
7720;DHT22;3902;49.474;8.616;2024-03-17T09:29:00;11.60;99.90
7720;DHT22;3902;49.474;8.616;2024-03-17T09:31:26;11.60;99.90
7720;DHT22;3902;49.474;8.616;2024-03-17T09:33:51;11.70;99.90
7720;DHT22;3902;49.474;8.616;2024-03-17T09:36:17;11.80;99.90
7720;DHT22;3902;49.474;8.616;2024-03-17T09:38:44;11.80;99.90
7720;DHT22;3902;49.474;8.616;2024-03-17T09:41:20;11.90;99.90
7720;DHT22;3902;49.474;8.616;2024-03-17T09:43:47;11.90;99.90
7720;DHT22;3902;49.474;8.616;2024-03-17T09:46:14;12.00;99.90
7720;DHT22;3902;49.474;8.616;2024-03-17T09:48:40;12.00;99.90
7720;DHT22;3902;49.474;8.616;2024-03-17T09:51:06;12.10;99.90
7720;DHT22;3902;49.474;8.616;2024-03-17T09:53:33;12.20;99.90
7720;DHT22;3902;49.474;8.616;2024-03-17T09:56:10;12.20;99.90
7720;DHT22;3902;49.474;8.616;2024-03-17T09:58:36;12.30;99.90
7720;DHT22;3902;49.474;8.616;2024-03-17T10:01:02;12.20;99.90
7720;DHT22;3902;49.474;8.616;2024-03-17T10:03:48;12.30;99.90
7720;DHT22;3902;49.474;8.616;2024-03-17T10:06:19;12.50;99.90
7720;DHT22;3902;49.474;8.616;2024-03-17T10:08:53;12.50;99.90
7720;DHT22;3902;49.474;8.616;2024-03-17T10:11:21;12.50;99.90
7720;DHT22;3902;49.474;8.616;2024-03-17T10:14:00;12.70;99.90
7720;DHT22;3902;49.474;8.616;2024-03-17T10:16:27;12.70;99.90
7720;DHT22;3902;49.474;8.616;2024-03-17T10:21:48;12.90;99.90
7720;DHT22;3902;49.474;8.616;2024-03-17T10:24:14;13.00;99.90
7720;DHT22;3902;49.474;8.616;2024-03-17T10:29:33;13.10;99.90
7720;DHT22;3902;49.474;8.616;2024-03-17T10:32:14;13.20;99.90
7720;DHT22;3902;49.474;8.616;2024-03-17T10:34:41;13.30;99.90
7720;DHT22;3902;49.474;8.616;2024-03-17T10:37:14;13.40;99.90
7720;DHT22;3902;49.474;8.616;2024-03-17T10:39:41;13.50;99.90
7720;DHT22;3902;49.474;8.616;2024-03-17T10:42:08;13.70;99.90
7720;DHT22;3902;49.474;8.616;2024-03-17T10:44:41;13.80;99.90
7720;DHT22;3902;49.474;8.616;2024-03-17T10:47:17;13.90;99.90
7720;DHT22;3902;49.474;8.616;2024-03-17T10:49:46;14.00;99.90
7720;DHT22;3902;49.474;8.616;2024-03-17T10:52:19;14.10;99.90
7720;DHT22;3902;49.474;8.616;2024-03-17T10:54:51;14.20;99.90
7720;DHT22;3902;49.474;8.616;2024-03-17T10:59:54;14.10;99.90
7720;DHT22;3902;49.474;8.616;2024-03-17T11:02:22;14.20;99.90
7720;DHT22;3902;49.474;8.616;2024-03-17T11:04:54;14.30;99.90
7720;DHT22;3902;49.474;8.616;2024-03-17T11:07:21;14.30;99.90
7720;DHT22;3902;49.474;8.616;2024-03-17T11:09:48;14.60;99.90
7720;DHT22;3902;49.474;8.616;2024-03-17T11:12:42;14.80;99.90
7720;DHT22;3902;49.474;8.616;2024-03-17T11:20:34;15.40;99.90
7720;DHT22;3902;49.474;8.616;2024-03-17T11:23:01;15.50;99.90
7720;DHT22;3902;49.474;8.616;2024-03-17T11:27:56;15.60;99.90
7720;DHT22;3902;49.474;8.616;2024-03-17T11:38:56;15.80;99.90
7720;DHT22;3902;49.474;8.616;2024-03-17T11:46:50;15.60;99.90
7720;DHT22;3902;49.474;8.616;2024-03-17T11:49:23;15.70;99.90
7720;DHT22;3902;49.474;8.616;2024-03-17T11:51:49;15.80;99.90
7720;DHT22;3902;49.474;8.616;2024-03-17T11:54:20;16.00;99.90
7720;DHT22;3902;49.474;8.616;2024-03-17T11:56:51;16.20;99.90
7720;DHT22;3902;49.474;8.616;2024-03-17T11:59:17;16.30;99.90
7720;DHT22;3902;49.474;8.616;2024-03-17T12:01:53;16.40;99.90
7720;DHT22;3902;49.474;8.616;2024-03-17T12:04:20;16.40;99.90
7720;DHT22;3902;49.474;8.616;2024-03-17T12:06:47;16.40;99.90
7720;DHT22;3902;49.474;8.616;2024-03-17T12:09:26;16.40;99.90
7720;DHT22;3902;49.474;8.616;2024-03-17T12:12:06;16.40;99.90
7720;DHT22;3902;49.474;8.616;2024-03-17T12:14:33;16.20;99.90
7720;DHT22;3902;49.474;8.616;2024-03-17T12:17:00;16.10;99.90
7720;DHT22;3902;49.474;8.616;2024-03-17T12:19:27;16.00;99.90
7720;DHT22;3902;49.474;8.616;2024-03-17T12:21:54;15.90;99.90
7720;DHT22;3902;49.474;8.616;2024-03-17T12:24:22;15.80;99.90
7720;DHT22;3902;49.474;8.616;2024-03-17T12:26:49;15.70;99.90
7720;DHT22;3902;49.474;8.616;2024-03-17T12:31:53;15.40;99.90
7720;DHT22;3902;49.474;8.616;2024-03-17T12:34:20;15.40;99.90
7720;DHT22;3902;49.474;8.616;2024-03-17T12:36:46;15.40;99.90
7720;DHT22;3902;49.474;8.616;2024-03-17T12:42:07;15.30;99.90
7720;DHT22;3902;49.474;8.616;2024-03-17T12:44:37;15.30;99.90
7720;DHT22;3902;49.474;8.616;2024-03-17T12:47:08;15.30;99.90
7720;DHT22;3902;49.474;8.616;2024-03-17T12:49:34;15.30;99.90
7720;DHT22;3902;49.474;8.616;2024-03-17T12:52:01;15.30;99.90
7720;DHT22;3902;49.474;8.616;2024-03-17T12:54:27;15.20;99.90
7720;DHT22;3902;49.474;8.616;2024-03-17T12:57:04;15.20;99.90
7720;DHT22;3902;49.474;8.616;2024-03-17T12:59:48;15.20;99.90
7720;DHT22;3902;49.474;8.616;2024-03-17T13:02:32;15.00;99.90
7720;DHT22;3902;49.474;8.616;2024-03-17T13:05:13;14.80;99.90
7720;DHT22;3902;49.474;8.616;2024-03-17T13:07:39;14.70;99.90
7720;DHT22;3902;49.474;8.616;2024-03-17T13:10:05;14.60;99.90
7720;DHT22;3902;49.474;8.616;2024-03-17T13:12:33;14.50;99.90
7720;DHT22;3902;49.474;8.616;2024-03-17T13:14:58;14.50;99.90
7720;DHT22;3902;49.474;8.616;2024-03-17T13:17:24;14.50;99.90
7720;DHT22;3902;49.474;8.616;2024-03-17T13:19:49;14.60;99.90
7720;DHT22;3902;49.474;8.616;2024-03-17T13:22:15;14.70;99.90
7720;DHT22;3902;49.474;8.616;2024-03-17T13:24:40;14.70;99.90
7720;DHT22;3902;49.474;8.616;2024-03-17T13:27:06;14.70;99.90
7720;DHT22;3902;49.474;8.616;2024-03-17T13:29:34;14.80;99.90
7720;DHT22;3902;49.474;8.616;2024-03-17T13:32:02;14.90;99.90
7720;DHT22;3902;49.474;8.616;2024-03-17T13:34:27;14.90;99.90
7720;DHT22;3902;49.474;8.616;2024-03-17T13:36:53;14.80;99.90
7720;DHT22;3902;49.474;8.616;2024-03-17T13:39:19;14.90;99.90
7720;DHT22;3902;49.474;8.616;2024-03-17T13:41:47;14.90;99.90
7720;DHT22;3902;49.474;8.616;2024-03-17T13:44:15;14.90;99.90
7720;DHT22;3902;49.474;8.616;2024-03-17T13:46:40;14.90;99.90
7720;DHT22;3902;49.474;8.616;2024-03-17T13:49:09;15.00;99.90
7720;DHT22;3902;49.474;8.616;2024-03-17T13:51:35;14.90;99.90
7720;DHT22;3902;49.474;8.616;2024-03-17T13:54:00;15.00;99.90
7720;DHT22;3902;49.474;8.616;2024-03-17T13:56:26;15.00;99.90
7720;DHT22;3902;49.474;8.616;2024-03-17T13:58:52;15.00;99.90
7720;DHT22;3902;49.474;8.616;2024-03-17T14:01:17;15.00;99.90
7720;DHT22;3902;49.474;8.616;2024-03-17T14:03:43;15.00;99.90
7720;DHT22;3902;49.474;8.616;2024-03-17T14:06:09;15.10;99.90
7720;DHT22;3902;49.474;8.616;2024-03-17T14:08:34;15.20;99.90
7720;DHT22;3902;49.474;8.616;2024-03-17T14:11:01;15.20;99.90
7720;DHT22;3902;49.474;8.616;2024-03-17T14:13:27;15.30;99.90
7720;DHT22;3902;49.474;8.616;2024-03-17T14:15:55;15.30;99.90
7720;DHT22;3902;49.474;8.616;2024-03-17T14:18:22;15.40;99.90
7720;DHT22;3902;49.474;8.616;2024-03-17T14:20:47;15.50;99.90
7720;DHT22;3902;49.474;8.616;2024-03-17T14:23:13;15.50;99.90
7720;DHT22;3902;49.474;8.616;2024-03-17T14:25:38;15.50;99.90
7720;DHT22;3902;49.474;8.616;2024-03-17T14:28:05;15.60;99.90
7720;DHT22;3902;49.474;8.616;2024-03-17T14:30:31;15.60;99.90
7720;DHT22;3902;49.474;8.616;2024-03-17T14:32:58;15.80;99.90
7720;DHT22;3902;49.474;8.616;2024-03-17T14:35:24;15.80;99.90
7720;DHT22;3902;49.474;8.616;2024-03-17T14:37:52;15.80;99.90
7720;DHT22;3902;49.474;8.616;2024-03-17T14:40:18;15.90;99.90
7720;DHT22;3902;49.474;8.616;2024-03-17T14:42:49;15.90;99.90
7720;DHT22;3902;49.474;8.616;2024-03-17T14:45:16;16.00;99.90
7720;DHT22;3902;49.474;8.616;2024-03-17T14:47:41;16.00;99.90
7720;DHT22;3902;49.474;8.616;2024-03-17T14:50:08;16.10;99.90
7720;DHT22;3902;49.474;8.616;2024-03-17T14:52:34;16.10;99.90
7720;DHT22;3902;49.474;8.616;2024-03-17T14:55:00;16.30;99.90
7720;DHT22;3902;49.474;8.616;2024-03-17T14:57:25;16.40;99.90
7720;DHT22;3902;49.474;8.616;2024-03-17T14:59:51;16.60;99.90
7720;DHT22;3902;49.474;8.616;2024-03-17T15:02:17;16.80;99.90
7720;DHT22;3902;49.474;8.616;2024-03-17T15:04:42;17.10;99.90
7720;DHT22;3902;49.474;8.616;2024-03-17T15:07:08;17.30;99.90
7720;DHT22;3902;49.474;8.616;2024-03-17T15:09:34;17.50;99.90
7720;DHT22;3902;49.474;8.616;2024-03-17T15:12:00;17.80;99.90
7720;DHT22;3902;49.474;8.616;2024-03-17T15:14:28;18.10;99.90
7720;DHT22;3902;49.474;8.616;2024-03-17T15:16:54;18.30;99.90
7720;DHT22;3902;49.474;8.616;2024-03-17T15:19:19;18.60;99.90
7720;DHT22;3902;49.474;8.616;2024-03-17T15:21:45;18.70;99.90
7720;DHT22;3902;49.474;8.616;2024-03-17T15:24:10;18.80;99.90
7720;DHT22;3902;49.474;8.616;2024-03-17T15:26:36;18.70;99.90
7720;DHT22;3902;49.474;8.616;2024-03-17T15:29:01;18.90;99.90
7720;DHT22;3902;49.474;8.616;2024-03-17T15:31:32;18.90;99.90
7720;DHT22;3902;49.474;8.616;2024-03-17T15:33:57;18.80;99.90
7720;DHT22;3902;49.474;8.616;2024-03-17T15:36:23;18.60;99.90
7720;DHT22;3902;49.474;8.616;2024-03-17T15:38:51;18.50;99.90
7720;DHT22;3902;49.474;8.616;2024-03-17T15:41:17;18.20;99.90
7720;DHT22;3902;49.474;8.616;2024-03-17T15:43:43;18.10;99.90
7720;DHT22;3902;49.474;8.616;2024-03-17T15:46:17;17.90;99.90
7720;DHT22;3902;49.474;8.616;2024-03-17T15:48:44;17.60;99.90
7720;DHT22;3902;49.474;8.616;2024-03-17T15:51:09;17.50;99.90
7720;DHT22;3902;49.474;8.616;2024-03-17T15:53:35;17.30;99.90
7720;DHT22;3902;49.474;8.616;2024-03-17T15:56:02;17.20;99.90
7720;DHT22;3902;49.474;8.616;2024-03-17T15:58:30;17.00;99.90
7720;DHT22;3902;49.474;8.616;2024-03-17T16:00:57;16.90;99.90
7720;DHT22;3902;49.474;8.616;2024-03-17T16:03:30;16.80;99.90
7720;DHT22;3902;49.474;8.616;2024-03-17T16:05:59;16.70;99.90
7720;DHT22;3902;49.474;8.616;2024-03-17T16:08:27;16.60;99.90
7720;DHT22;3902;49.474;8.616;2024-03-17T16:10:56;16.50;99.90
7720;DHT22;3902;49.474;8.616;2024-03-17T16:13:22;16.40;99.90
7720;DHT22;3902;49.474;8.616;2024-03-17T16:15:49;16.40;99.90
7720;DHT22;3902;49.474;8.616;2024-03-17T16:18:19;16.30;99.90
7720;DHT22;3902;49.474;8.616;2024-03-17T16:23:17;16.00;99.90
7720;DHT22;3902;49.474;8.616;2024-03-17T16:25:45;15.90;99.90
7720;DHT22;3902;49.474;8.616;2024-03-17T16:28:10;15.80;99.90
7720;DHT22;3902;49.474;8.616;2024-03-17T16:30:39;15.80;99.90
7720;DHT22;3902;49.474;8.616;2024-03-17T16:33:05;15.80;99.90
7720;DHT22;3902;49.474;8.616;2024-03-17T16:35:31;15.70;99.90
7720;DHT22;3902;49.474;8.616;2024-03-17T16:37:58;15.70;99.90
7720;DHT22;3902;49.474;8.616;2024-03-17T16:40:24;15.60;99.90
7720;DHT22;3902;49.474;8.616;2024-03-17T16:42:49;15.50;99.90
7720;DHT22;3902;49.474;8.616;2024-03-17T16:45:16;15.50;99.90
7720;DHT22;3902;49.474;8.616;2024-03-17T16:47:43;15.50;99.90
7720;DHT22;3902;49.474;8.616;2024-03-17T16:50:10;15.40;99.90
7720;DHT22;3902;49.474;8.616;2024-03-17T16:52:38;15.40;99.90